Time;durP1;ratioP1;P1;durP2;ratioP2;P2;SDS_P1;SDS_P2;PMS_P1;PMS_P2;Temp;Humidity;BMP_temperature;BMP_pressure;BME280_temperature;BME280_humidity;BME280_pressure;Samples;Min_cycle;Max_cycle;Signal;HPM_P1;HPM_P2
2022/08/30 00:01:01;;;;;;;;;;;;;;;14.22;87.51;100965.16;5001477;28;1751;-82
2022/08/30 00:03:26;;;;;;;;;;;;;;;14.15;88.01;100966.63;4998106;28;1355;-82
2022/08/30 00:05:52;;;;;;;;;;;;;;;14.22;88.38;100962.41;4982932;28;1520;-81
2022/08/30 00:08:18;;;;;;;;;;;;;;;14.23;88.54;100965.97;4996613;28;1902;-81
2022/08/30 00:10:43;;;;;;;;;;;;;;;14.26;88.63;100968.97;4988820;28;1650;-82
2022/08/30 00:13:11;;;;;;;;;;;;;;;14.29;87.85;100971.13;4979312;28;1449;-82
2022/08/30 00:15:37;;;;;;;;;;;;;;;14.27;87.03;100970.63;4982791;28;1464;-81
2022/08/30 00:18:02;;;;;;;;;;;;;;;14.29;87.64;100967.59;5000762;28;1657;-81
2022/08/30 00:20:28;;;;;;;;;;;;;;;14.31;88.60;100971.66;4999508;28;1582;-81
2022/08/30 00:22:54;;;;;;;;;;;;;;;14.30;87.94;100963.69;4999521;28;1472;-82
2022/08/30 00:25:19;;;;;;;;;;;;;;;14.22;87.91;100959.66;5000079;28;1091;-82
2022/08/30 00:27:44;;;;;;;;;;;;;;;14.10;88.92;100963.94;5000321;28;1961;-81
2022/08/30 00:30:11;;;;;;;;;;;;;;;14.02;89.13;100959.91;5000876;28;1613;-81
2022/08/30 00:32:36;;;;;;;;;;;;;;;13.93;89.83;100954.22;4994839;28;1481;-81
2022/08/30 00:35:01;;;;;;;;;;;;;;;13.95;88.82;100957.47;4994652;28;1450;-81
2022/08/30 00:37:26;;;;;;;;;;;;;;;13.95;88.70;100957.47;4981221;28;1520;-81
2022/08/30 00:39:52;;;;;;;;;;;;;;;13.96;89.33;100961.88;5000842;28;1464;-82
2022/08/30 00:42:18;;;;;;;;;;;;;;;13.97;87.94;100962.69;5001323;28;1215;-81
2022/08/30 00:44:44;;;;;;;;;;;;;;;13.97;88.68;100966.28;4984343;28;1310;-81
2022/08/30 00:47:09;;;;;;;;;;;;;;;13.93;89.08;100958.91;4990963;28;1906;-81
2022/08/30 00:49:35;;;;;;;;;;;;;;;13.91;88.61;100963.88;5000782;28;1289;-81
2022/08/30 00:52:01;;;;;;;;;;;;;;;13.84;88.86;100972.47;4997520;28;1512;-81
2022/08/30 00:54:28;;;;;;;;;;;;;;;13.79;88.98;100964.25;4982301;28;1480;-81
2022/08/30 00:56:53;;;;;;;;;;;;;;;13.80;88.10;100960.41;5001399;28;1106;-81
2022/08/30 00:59:18;;;;;;;;;;;;;;;13.72;88.85;100963.78;5001124;28;1212;-81
2022/08/30 01:01:44;;;;;;;;;;;;;;;13.81;88.18;100955.72;4999992;28;1740;-81
2022/08/30 01:04:09;;;;;;;;;;;;;;;13.67;88.42;100955.59;4981797;28;1302;-81
2022/08/30 01:06:35;;;;;;;;;;;;;;;13.76;89.00;100964.03;4999693;28;1316;-81
2022/08/30 01:09:01;;;;;;;;;;;;;;;13.77;88.57;100960.19;5001043;28;1890;-81
2022/08/30 01:11:27;;;;;;;;;;;;;;;13.72;88.89;100961.03;4983112;28;1449;-81
2022/08/30 01:13:53;;;;;;;;;;;;;;;13.63;88.52;100962.75;4998953;28;1348;-82
2022/08/30 01:16:19;;;;;;;;;;;;;;;13.67;89.53;100974.84;4997206;28;1427;-81
2022/08/30 01:18:44;;;;;;;;;;;;;;;13.67;88.24;100966.59;4999714;28;1562;-81
2022/08/30 01:21:09;;;;;;;;;;;;;;;13.66;89.21;100969.63;5000330;28;1249;-81
2022/08/30 01:23:36;;;;;;;;;;;;;;;13.62;88.84;100969.38;4980804;28;1438;-82
2022/08/30 01:26:04;;;;;;;;;;;;;;;13.61;89.71;100968.56;4998193;28;1458;-81
2022/08/30 01:28:30;;;;;;;;;;;;;;;13.66;89.26;100981.44;5000210;28;1890;-82
2022/08/30 01:30:55;;;;;;;;;;;;;;;13.65;89.30;100977.06;4970203;28;1592;-82
2022/08/30 01:33:20;;;;;;;;;;;;;;;13.59;89.57;100976.28;4974247;28;1357;-81
2022/08/30 01:35:49;;;;;;;;;;;;;;;13.56;88.55;100976.03;4998081;28;1598;-83
2022/08/30 01:38:15;;;;;;;;;;;;;;;13.51;88.58;100982.41;4991136;28;1626;-81
2022/08/30 01:40:40;;;;;;;;;;;;;;;13.50;89.18;100986.28;4999612;28;1333;-82
2022/08/30 01:43:06;;;;;;;;;;;;;;;13.45;88.31;100986.31;4980934;28;1238;-81
2022/08/30 01:45:32;;;;;;;;;;;;;;;13.41;88.71;100981.69;4992494;28;1230;-81
2022/08/30 01:47:57;;;;;;;;;;;;;;;13.36;89.04;100979.78;4981151;28;1967;-81
2022/08/30 01:50:22;;;;;;;;;;;;;;;13.36;89.43;100976.19;4978556;28;1428;-81
2022/08/30 01:52:47;;;;;;;;;;;;;;;13.24;88.75;100982.91;4992627;28;1360;-82
2022/08/30 01:55:12;;;;;;;;;;;;;;;13.33;89.28;100983.13;4997015;28;1411;-82
2022/08/30 01:57:38;;;;;;;;;;;;;;;13.30;88.74;100989.19;4994129;28;1438;-82
2022/08/30 02:00:04;;;;;;;;;;;;;;;13.31;89.61;100971.56;4999179;28;1497;-81
2022/08/30 02:02:29;;;;;;;;;;;;;;;13.25;88.77;100976.31;4999727;28;1251;-81
2022/08/30 02:04:55;;;;;;;;;;;;;;;13.21;89.49;100980.72;4980929;28;1296;-82
2022/08/30 02:07:21;;;;;;;;;;;;;;;13.19;89.73;100977.44;4979289;28;1970;-81
2022/08/30 02:09:47;;;;;;;;;;;;;;;13.14;89.66;100977.47;4986498;28;1287;-81
2022/08/30 02:12:14;;;;;;;;;;;;;;;13.15;89.29;100967.31;4982484;28;1673;-82
2022/08/30 02:14:39;;;;;;;;;;;;;;;13.13;90.02;100978.59;4997905;28;1679;-81
2022/08/30 02:17:06;;;;;;;;;;;;;;;13.13;89.06;100977.72;4999344;28;1608;-81
2022/08/30 02:19:31;;;;;;;;;;;;;;;13.10;89.87;100970.88;4999092;28;1426;-82
2022/08/30 02:21:56;;;;;;;;;;;;;;;13.04;89.37;100977.50;4999176;28;1590;-81
2022/08/30 02:24:21;;;;;;;;;;;;;;;13.01;90.28;100978.09;4989392;28;1682;-81
2022/08/30 02:26:47;;;;;;;;;;;;;;;13.07;90.67;100984.38;4979948;28;1450;-80
2022/08/30 02:29:12;;;;;;;;;;;;;;;13.04;89.45;100984.94;4998600;28;1887;-80
2022/08/30 02:31:37;;;;;;;;;;;;;;;13.00;90.04;100979.19;4999106;28;1200;-81
2022/08/30 02:34:03;;;;;;;;;;;;;;;12.96;89.64;100989.09;4998223;28;1578;-80
2022/08/30 02:36:28;;;;;;;;;;;;;;;12.90;90.28;100979.25;4998452;28;1543;-80
2022/08/30 02:38:53;;;;;;;;;;;;;;;12.93;90.78;100983.38;4998404;28;1280;-80
2022/08/30 02:41:19;;;;;;;;;;;;;;;12.89;90.90;100989.44;4978488;28;1249;-80
2022/08/30 02:43:45;;;;;;;;;;;;;;;12.92;90.69;100978.97;4992431;28;1467;-80
2022/08/30 02:46:10;;;;;;;;;;;;;;;12.95;90.58;100986.63;4992188;28;1463;-80
2022/08/30 02:48:35;;;;;;;;;;;;;;;12.93;90.19;100981.41;4997950;28;1950;-80
2022/08/30 02:51:05;;;;;;;;;;;;;;;12.87;89.75;100988.06;4997089;28;1625;-80
2022/08/30 02:53:30;;;;;;;;;;;;;;;12.83;89.83;100984.25;4997006;28;1246;-80
2022/08/30 02:55:55;;;;;;;;;;;;;;;12.84;90.73;100983.94;4997023;28;1407;-80
2022/08/30 02:58:20;;;;;;;;;;;;;;;12.89;91.24;100980.38;4991818;28;1514;-80
2022/08/30 03:00:46;;;;;;;;;;;;;;;12.86;90.72;100976.25;4996757;28;1454;-80
2022/08/30 03:03:11;;;;;;;;;;;;;;;12.87;91.10;100977.91;4996061;28;1325;-80
2022/08/30 03:05:36;;;;;;;;;;;;;;;12.81;89.81;100983.72;4978823;28;1697;-80
2022/08/30 03:08:01;;;;;;;;;;;;;;;12.72;90.21;100986.22;4979711;28;1875;-80
2022/08/30 03:10:27;;;;;;;;;;;;;;;12.68;90.34;100978.81;4995936;28;1509;-80
2022/08/30 03:12:53;;;;;;;;;;;;;;;12.60;90.44;100976.66;4992758;28;1504;-80
2022/08/30 03:15:18;;;;;;;;;;;;;;;12.59;90.40;100972.31;4979234;28;1668;-79
2022/08/30 03:17:44;;;;;;;;;;;;;;;12.62;91.00;100968.97;4996436;28;1631;-80
2022/08/30 03:20:09;;;;;;;;;;;;;;;12.34;92.06;100985.00;4978574;28;1715;-80
2022/08/30 03:22:34;;;;;;;;;;;;;;;12.39;92.67;100978.69;4986522;28;1892;-80
2022/08/30 03:25:00;;;;;;;;;;;;;;;12.47;92.20;100981.69;4991588;28;1084;-80
2022/08/30 03:27:26;;;;;;;;;;;;;;;12.49;92.36;100974.00;4996788;28;1937;-80
2022/08/30 03:29:51;;;;;;;;;;;;;;;12.51;92.28;100977.25;4962275;28;1289;-80
2022/08/30 03:32:16;;;;;;;;;;;;;;;12.54;91.72;100980.56;4975128;28;1673;-80
2022/08/30 03:34:42;;;;;;;;;;;;;;;12.49;91.29;100974.00;4988659;28;1432;-80
2022/08/30 03:37:07;;;;;;;;;;;;;;;12.53;91.66;100968.75;4996582;28;1139;-80
2022/08/30 03:39:32;;;;;;;;;;;;;;;12.55;92.36;100965.72;4996269;28;1636;-80
2022/08/30 03:41:57;;;;;;;;;;;;;;;12.53;92.62;100957.75;4978541;28;1405;-80
2022/08/30 03:44:22;;;;;;;;;;;;;;;12.50;92.61;100956.38;4994635;28;1853;-80
2022/08/30 03:46:48;;;;;;;;;;;;;;;12.47;92.05;100956.97;4991243;28;1496;-80
2022/08/30 03:49:13;;;;;;;;;;;;;;;12.49;92.47;100971.25;4978538;28;1902;-80
2022/08/30 03:51:39;;;;;;;;;;;;;;;12.47;91.26;100969.88;4992136;28;1654;-80
2022/08/30 03:54:04;;;;;;;;;;;;;;;12.46;91.40;100980.03;4973532;28;1193;-80
2022/08/30 03:56:29;;;;;;;;;;;;;;;12.41;91.74;100969.09;4978322;28;1043;-80
2022/08/30 03:58:55;;;;;;;;;;;;;;;12.46;92.16;100977.28;4990431;28;1487;-79
2022/08/30 04:01:20;;;;;;;;;;;;;;;12.41;92.46;100969.09;4995706;28;877;-79
2022/08/30 04:03:45;;;;;;;;;;;;;;;12.42;92.90;100973.44;4994520;28;1095;-79
2022/08/30 04:06:10;;;;;;;;;;;;;;;12.36;92.44;100977.31;4995676;28;1420;-80
2022/08/30 04:08:36;;;;;;;;;;;;;;;12.35;92.34;100983.91;4995474;28;1898;-80
2022/08/30 04:11:04;;;;;;;;;;;;;;;12.31;93.22;100976.53;4995402;28;1801;-80
2022/08/30 04:13:29;;;;;;;;;;;;;;;12.25;93.01;100975.72;4993963;28;1821;-80
2022/08/30 04:15:54;;;;;;;;;;;;;;;12.28;92.83;100985.31;4995900;28;1160;-79
2022/08/30 04:18:20;;;;;;;;;;;;;;;12.30;92.31;100983.13;4995475;28;1544;-79
2022/08/30 04:20:46;;;;;;;;;;;;;;;12.27;92.32;100979.00;4996574;28;1008;-79
2022/08/30 04:23:11;;;;;;;;;;;;;;;12.25;92.21;100974.91;4977548;28;1581;-79
2022/08/30 04:25:39;;;;;;;;;;;;;;;12.20;91.92;100981.22;4977658;28;1376;-79
2022/08/30 04:28:04;;;;;;;;;;;;;;;12.21;92.85;100977.41;4978424;28;1898;-79
2022/08/30 04:30:30;;;;;;;;;;;;;;;12.21;92.39;100971.91;4995259;28;1659;-79
2022/08/30 04:32:55;;;;;;;;;;;;;;;12.21;92.86;100982.88;4995667;28;1420;-79
2022/08/30 04:35:20;;;;;;;;;;;;;;;12.23;93.08;100980.69;4993210;28;1556;-79
2022/08/30 04:37:46;;;;;;;;;;;;;;;12.22;92.93;100990.00;4998984;28;1691;-78
2022/08/30 04:40:12;;;;;;;;;;;;;;;12.20;92.65;100977.66;4997874;28;1311;-80
2022/08/30 04:42:38;;;;;;;;;;;;;;;12.12;92.68;100988.13;4995643;28;1422;-80
2022/08/30 04:45:05;;;;;;;;;;;;;;;12.12;92.94;100990.03;4998243;28;1083;-79
2022/08/30 04:47:30;;;;;;;;;;;;;;;12.15;92.54;100986.75;4998262;28;1945;-80
2022/08/30 04:49:56;;;;;;;;;;;;;;;12.15;92.13;100994.97;4980567;28;1459;-79
2022/08/30 04:52:21;;;;;;;;;;;;;;;12.09;91.84;100993.34;4980301;28;1390;-79
2022/08/30 04:54:46;;;;;;;;;;;;;;;12.10;91.94;100994.97;4983415;28;818;-80
2022/08/30 04:57:12;;;;;;;;;;;;;;;12.12;92.09;101007.34;4978459;28;1696;-79
2022/08/30 04:59:37;;;;;;;;;;;;;;;12.14;92.52;100998.81;4960808;28;1217;-80
2022/08/30 05:02:02;;;;;;;;;;;;;;;12.11;92.77;101004.84;4992814;28;1285;-80
2022/08/30 05:04:28;;;;;;;;;;;;;;;12.10;92.92;101015.00;4997538;28;1125;-79
2022/08/30 05:06:53;;;;;;;;;;;;;;;12.19;92.77;101012.53;4998093;28;996;-79
2022/08/30 05:09:20;;;;;;;;;;;;;;;12.21;93.19;101009.50;4991564;28;1955;-80
2022/08/30 05:11:45;;;;;;;;;;;;;;;12.16;92.47;101010.34;4994205;28;1422;-79
2022/08/30 05:14:11;;;;;;;;;;;;;;;12.13;92.39;101016.38;4993805;28;972;-79
2022/08/30 05:16:36;;;;;;;;;;;;;;;12.10;92.85;101017.75;4997317;28;1659;-79
2022/08/30 05:19:01;;;;;;;;;;;;;;;12.13;92.41;101016.38;4961226;28;1202;-79
2022/08/30 05:21:27;;;;;;;;;;;;;;;12.16;92.99;101018.59;4961579;28;1525;-79
2022/08/30 05:23:54;;;;;;;;;;;;;;;12.19;93.12;101025.41;4990440;28;1813;-80
2022/08/30 05:26:21;;;;;;;;;;;;;;;12.23;93.97;101019.13;4997158;28;1734;-79
2022/08/30 05:28:46;;;;;;;;;;;;;;;12.23;93.68;101019.13;4996594;28;1956;-79
2022/08/30 05:31:22;;;;;;;;;;;;;;;12.24;94.54;101015.28;4996426;28;1755;-79
2022/08/30 05:33:48;;;;;;;;;;;;;;;12.27;94.07;101019.34;4996408;28;1330;-79
2022/08/30 05:36:14;;;;;;;;;;;;;;;12.33;94.50;101021.84;4976872;28;1478;-79
2022/08/30 05:38:39;;;;;;;;;;;;;;;12.38;94.44;101023.72;4994036;28;1430;-81
2022/08/30 05:41:05;;;;;;;;;;;;;;;12.38;94.32;101021.81;4983091;28;1024;-80
2022/08/30 05:43:30;;;;;;;;;;;;;;;12.43;95.00;101027.25;4973884;28;1635;-79
2022/08/30 05:46:00;;;;;;;;;;;;;;;12.56;95.30;101025.03;4991114;28;1408;-79
2022/08/30 05:48:25;;;;;;;;;;;;;;;12.63;95.18;101029.13;4990716;28;1906;-79
2022/08/30 05:50:50;;;;;;;;;;;;;;;12.66;95.90;101041.47;4975832;28;1858;-80
2022/08/30 05:53:15;;;;;;;;;;;;;;;12.77;96.34;101030.13;4988077;28;1857;-79
2022/08/30 05:55:40;;;;;;;;;;;;;;;12.82;96.49;101034.81;4993570;28;1729;-79
2022/08/30 05:58:05;;;;;;;;;;;;;;;12.91;96.76;101043.28;4997340;28;1095;-79
2022/08/30 06:00:31;;;;;;;;;;;;;;;12.95;97.35;101031.44;4984593;28;1900;-79
2022/08/30 06:02:56;;;;;;;;;;;;;;;13.01;97.10;101048.72;4996561;28;1106;-79
2022/08/30 06:05:21;;;;;;;;;;;;;;;13.04;97.51;101039.91;4994763;28;1682;-80
2022/08/30 06:07:46;;;;;;;;;;;;;;;13.11;98.13;101043.16;4988646;28;1988;-80
2022/08/30 06:10:11;;;;;;;;;;;;;;;13.16;98.54;101035.75;4996148;28;1381;-82
2022/08/30 06:12:36;;;;;;;;;;;;;;;13.20;98.96;101033.22;4996471;28;1658;-80
2022/08/30 06:15:02;;;;;;;;;;;;;;;13.22;99.16;101034.59;4994212;28;1695;-79
2022/08/30 06:17:27;;;;;;;;;;;;;;;13.25;98.94;101033.22;4991405;28;1348;-82
2022/08/30 06:19:52;;;;;;;;;;;;;;;13.29;98.52;101036.19;4996055;28;1354;-79
2022/08/30 06:22:17;;;;;;;;;;;;;;;13.33;99.04;101037.28;4996132;28;1626;-79
2022/08/30 06:24:43;;;;;;;;;;;;;;;13.37;99.57;101039.16;4995760;28;791;-79
2022/08/30 06:27:08;;;;;;;;;;;;;;;13.42;100.00;101030.88;4990792;28;1488;-82
2022/08/30 06:29:34;;;;;;;;;;;;;;;13.47;99.84;101039.09;4992114;28;2008;-80
2022/08/30 06:31:59;;;;;;;;;;;;;;;13.49;99.56;101038.81;4990097;28;1504;-79
2022/08/30 06:34:24;;;;;;;;;;;;;;;13.53;99.97;101037.94;4993903;28;1496;-80
2022/08/30 06:36:49;;;;;;;;;;;;;;;13.57;100.00;101046.44;4991200;28;1413;-79
2022/08/30 06:39:14;;;;;;;;;;;;;;;13.60;100.00;101043.13;4975076;28;1877;-79
2022/08/30 06:41:40;;;;;;;;;;;;;;;13.66;100.00;101041.97;4978388;28;1389;-80
2022/08/30 06:44:05;;;;;;;;;;;;;;;13.70;100.00;101048.53;4995338;28;1655;-80
2022/08/30 06:46:32;;;;;;;;;;;;;;;13.75;100.00;101050.44;4977861;28;1493;-79
2022/08/30 06:48:57;;;;;;;;;;;;;;;13.78;100.00;101050.66;4995717;28;1961;-79
2022/08/30 06:51:27;;;;;;;;;;;;;;;13.82;100.00;101051.75;4995918;28;1706;-81
2022/08/30 06:53:53;;;;;;;;;;;;;;;13.86;100.00;101050.06;4985290;28;1679;-82
2022/08/30 06:56:18;;;;;;;;;;;;;;;13.88;100.00;101056.06;4992443;28;1147;-82
2022/08/30 06:58:44;;;;;;;;;;;;;;;13.90;100.00;101059.38;4978348;28;1297;-83
2022/08/30 07:01:14;;;;;;;;;;;;;;;13.92;100.00;101056.34;4996075;28;787;-82
2022/08/30 07:03:39;;;;;;;;;;;;;;;13.96;100.00;101052.69;4996375;28;1000;-82
2022/08/30 07:06:05;;;;;;;;;;;;;;;14.01;100.00;101054.59;4995445;28;1357;-82
2022/08/30 07:08:30;;;;;;;;;;;;;;;14.02;100.00;101059.81;4977750;28;1906;-83
2022/08/30 07:10:56;;;;;;;;;;;;;;;14.10;100.00;101066.63;4985803;28;1523;-83
2022/08/30 07:13:22;;;;;;;;;;;;;;;14.11;100.00;101053.69;4992884;28;1359;-83
2022/08/30 07:15:48;;;;;;;;;;;;;;;14.13;100.00;101065.19;4995887;28;885;-83
2022/08/30 07:20:58;;;;;;;;;;;;;;;14.18;100.00;101065.16;4996572;28;514;-82
2022/08/30 07:23:23;;;;;;;;;;;;;;;14.14;100.00;101069.59;4978055;28;1359;-82
2022/08/30 07:25:49;;;;;;;;;;;;;;;14.11;100.00;101071.03;4975188;28;1158;-82
2022/08/30 07:28:14;;;;;;;;;;;;;;;14.10;100.00;101066.63;4993275;28;1965;-83
2022/08/30 07:30:39;;;;;;;;;;;;;;;14.11;100.00;101067.44;4996317;28;874;-83
2022/08/30 07:33:05;;;;;;;;;;;;;;;14.12;100.00;101074.59;4978130;28;1378;-83
2022/08/30 07:35:30;;;;;;;;;;;;;;;14.18;100.00;101081.69;4978138;28;1277;-83
2022/08/30 07:37:55;;;;;;;;;;;;;;;14.21;100.00;101078.34;4994953;28;1319;-83
2022/08/30 07:40:21;;;;;;;;;;;;;;;14.23;100.00;101074.19;4978248;28;1770;-83
2022/08/30 07:42:46;;;;;;;;;;;;;;;14.27;100.00;101080.78;4996141;28;937;-82
2022/08/30 07:45:11;;;;;;;;;;;;;;;14.30;100.00;101082.09;4995691;28;1246;-82
2022/08/30 07:47:36;;;;;;;;;;;;;;;14.33;100.00;101087.03;4995874;28;1897;-83
2022/08/30 07:50:03;;;;;;;;;;;;;;;14.37;100.00;101088.09;4975052;28;1309;-83
2022/08/30 07:52:28;;;;;;;;;;;;;;;14.37;100.00;101088.09;4977962;28;1260;-83
2022/08/30 07:54:54;;;;;;;;;;;;;;;14.39;100.00;101088.66;4995626;28;1012;-83
2022/08/30 07:57:19;;;;;;;;;;;;;;;14.41;100.00;101086.44;4978239;28;1763;-83
2022/08/30 07:59:44;;;;;;;;;;;;;;;14.47;100.00;101087.19;4977909;28;1282;-83
2022/08/30 08:02:09;;;;;;;;;;;;;;;14.53;100.00;101088.78;4984795;28;1163;-83
2022/08/30 08:04:34;;;;;;;;;;;;;;;14.58;100.00;101080.47;4958846;28;913;-83
2022/08/30 08:07:00;;;;;;;;;;;;;;;14.62;100.00;101087.88;4989419;28;1287;-82
2022/08/30 08:09:25;;;;;;;;;;;;;;;14.68;100.00;101085.84;4980413;28;1886;-83
2022/08/30 08:11:50;;;;;;;;;;;;;;;14.72;100.00;101081.38;4999323;28;818;-83
2022/08/30 08:14:15;;;;;;;;;;;;;;;14.73;100.00;101083.03;4981015;28;1562;-84
2022/08/30 08:16:43;;;;;;;;;;;;;;;14.77;100.00;101090.44;4981467;28;1290;-83
2022/08/30 08:19:08;;;;;;;;;;;;;;;14.85;100.00;101079.88;4970615;28;1827;-83
2022/08/30 08:21:34;;;;;;;;;;;;;;;14.90;100.00;101085.31;4979394;28;1755;-82
2022/08/30 08:23:59;;;;;;;;;;;;;;;14.98;100.00;101085.47;4972136;28;1204;-82
2022/08/30 08:26:24;;;;;;;;;;;;;;;15.07;100.00;101085.63;4996533;28;1103;-82
2022/08/30 08:28:49;;;;;;;;;;;;;;;15.11;100.00;101078.41;4998559;28;1978;-83
2022/08/30 08:31:16;;;;;;;;;;;;;;;15.15;100.00;101090.47;4999073;28;842;-83
2022/08/30 08:33:41;;;;;;;;;;;;;;;15.23;100.00;101081.53;4977582;28;1759;-83
2022/08/30 08:36:06;;;;;;;;;;;;;;;15.39;100.00;101079.41;4991515;28;1261;-86
2022/08/30 08:38:31;;;;;;;;;;;;;;;15.51;100.00;101080.59;4979204;28;1509;-86
2022/08/30 08:41:04;;;;;;;;;;;;;;;15.55;100.00;101078.09;4979836;28;1272;-86
2022/08/30 08:43:32;;;;;;;;;;;;;;;15.67;100.00;101081.19;4978469;28;1235;-87
2022/08/30 08:46:03;;;;;;;;;;;;;;;15.64;100.00;101078.22;4996557;28;1334;-87
2022/08/30 08:48:37;;;;;;;;;;;;;;;15.69;100.00;101078.13;4989736;28;1894;-86
2022/08/30 08:53:52;;;;;;;;;;;;;;;15.70;99.72;101074.25;4982844;28;1072;-89
2022/08/30 08:56:18;;;;;;;;;;;;;;;15.80;99.65;101076.84;4979243;28;1237;-89
2022/08/30 08:58:49;;;;;;;;;;;;;;;15.95;98.37;101073.00;4978521;28;1309;-86
2022/08/30 09:01:16;;;;;;;;;;;;;;;15.89;98.86;101064.84;4990007;28;1697;-85
2022/08/30 09:03:42;;;;;;;;;;;;;;;15.86;98.31;101059.91;5017047;23;1737;-87
2022/08/30 09:06:16;;;;;;;;;;;;;;;15.97;98.61;101063.31;4997192;28;1321;-87
2022/08/30 09:08:53;;;;;;;;;;;;;;;15.98;98.28;101064.13;4986422;28;1984;-87
2022/08/30 09:11:55;;;;;;;;;;;;;;;15.91;97.89;101070.03;4971611;28;1502;-87
2022/08/30 09:14:24;;;;;;;;;;;;;;;15.79;98.22;101067.75;4990469;28;1359;-87
2022/08/30 09:17:19;;;;;;;;;;;;;;;15.85;98.43;101060.19;4995384;28;1240;-87
2022/08/30 09:19:55;;;;;;;;;;;;;;;15.97;98.44;101057.78;4963090;28;1618;-87
2022/08/30 09:22:25;;;;;;;;;;;;;;;16.03;98.61;101062.09;4977371;28;1084;-87
2022/08/30 09:25:02;;;;;;;;;;;;;;;16.06;98.33;101061.50;4976791;28;1309;-87
2022/08/30 09:27:35;;;;;;;;;;;;;;;16.08;98.98;101058.41;4977299;28;1946;-87
2022/08/30 09:30:03;;;;;;;;;;;;;;;16.16;98.66;101063.25;4976168;28;1568;-88
2022/08/30 09:32:30;;;;;;;;;;;;;;;16.23;98.62;101060.91;4977194;28;997;-89
2022/08/30 09:34:55;;;;;;;;;;;;;;;16.28;98.36;101058.88;4975105;28;1709;-89
2022/08/30 09:37:26;;;;;;;;;;;;;;;16.23;97.25;101060.91;4975749;28;1630;-86
2022/08/30 09:39:51;;;;;;;;;;;;;;;16.25;97.58;101053.13;4977077;28;1048;-86
2022/08/30 09:42:25;;;;;;;;;;;;;;;16.35;98.21;101060.41;4975291;28;1161;-88
2022/08/30 09:44:51;;;;;;;;;;;;;;;16.38;97.65;101054.28;4977908;28;1407;-87
2022/08/30 09:47:18;;;;;;;;;;;;;;;16.41;97.09;101051.72;4982494;28;1565;-87
2022/08/30 09:49:44;;;;;;;;;;;;;;;16.52;96.92;101046.81;4976786;28;1903;-87
2022/08/30 09:52:29;;;;;;;;;;;;;;;16.56;96.86;101042.31;4975575;28;1593;-87
2022/08/30 09:54:58;;;;;;;;;;;;;;;16.66;97.12;101038.56;4978766;28;1823;-86
2022/08/30 09:57:32;;;;;;;;;;;;;;;16.70;96.77;101037.63;4979236;28;1666;-87
2022/08/30 10:00:14;;;;;;;;;;;;;;;16.69;95.96;101038.75;4976867;28;1458;-87
2022/08/30 10:02:54;;;;;;;;;;;;;;;16.71;96.63;101039.25;4992593;28;1444;-87
2022/08/30 10:05:19;;;;;;;;;;;;;;;16.74;95.77;101043.38;4975387;28;1178;-87
2022/08/30 10:07:56;;;;;;;;;;;;;;;16.80;95.52;101033.81;4978637;28;1894;-87
2022/08/30 10:10:29;;;;;;;;;;;;;;;16.90;95.05;101033.63;4978021;28;1048;-87
2022/08/30 10:12:54;;;;;;;;;;;;;;;16.98;94.63;101033.69;4975822;28;1521;-86
2022/08/30 10:15:39;;;;;;;;;;;;;;;16.99;95.35;101034.53;4977607;28;1324;-86
2022/08/30 10:18:09;;;;;;;;;;;;;;;16.97;94.21;101029.28;4972942;28;1456;-86
2022/08/30 10:20:47;;;;;;;;;;;;;;;17.06;94.08;101015.56;4978590;28;1147;-86
2022/08/30 10:23:16;;;;;;;;;;;;;;;17.19;93.07;101022.16;4977573;28;1230;-86
2022/08/30 10:25:50;;;;;;;;;;;;;;;17.24;92.87;101011.81;4975688;28;1752;-88
2022/08/30 10:28:25;;;;;;;;;;;;;;;17.19;93.32;101019.38;4973786;28;1886;-87
2022/08/30 10:30:55;;;;;;;;;;;;;;;17.24;92.46;101024.81;4975291;28;976;-88
2022/08/30 10:33:27;;;;;;;;;;;;;;;17.27;91.63;101018.66;4975572;28;1794;-87
2022/08/30 10:35:55;;;;;;;;;;;;;;;17.36;90.78;101011.25;4974056;28;1504;-87
2022/08/30 10:38:26;;;;;;;;;;;;;;;17.38;92.32;101015.34;4974903;28;1328;-87
2022/08/30 10:41:12;;;;;;;;;;;;;;;17.47;91.58;101007.09;4975915;28;1318;-88
2022/08/30 10:43:49;;;;;;;;;;;;;;;17.56;90.56;101015.47;4975726;28;1516;-87
2022/08/30 10:46:20;;;;;;;;;;;;;;;17.63;90.13;101013.91;4976938;28;1427;-86
2022/08/30 10:48:46;;;;;;;;;;;;;;;17.65;91.20;101002.53;4974820;28;1894;-87
2022/08/30 10:51:16;;;;;;;;;;;;;;;17.69;90.12;101003.56;4975282;28;1080;-87
2022/08/30 10:53:51;;;;;;;;;;;;;;;17.69;89.83;101001.56;4972380;28;1452;-87
2022/08/30 10:56:20;;;;;;;;;;;;;;;17.70;91.12;101011.53;4973249;28;1467;-87
2022/08/30 10:58:46;;;;;;;;;;;;;;;17.71;90.37;101002.09;4974433;28;1446;-87
2022/08/30 11:01:11;;;;;;;;;;;;;;;17.70;89.59;101008.75;4984669;28;1212;-87
2022/08/30 11:03:54;;;;;;;;;;;;;;;17.71;89.88;101002.09;4979849;28;1305;-87
2022/08/30 11:06:42;;;;;;;;;;;;;;;17.80;88.00;101004.91;4974873;28;1130;-87
2022/08/30 11:09:13;;;;;;;;;;;;;;;17.93;88.90;101006.78;4974850;28;1902;-87
2022/08/30 11:11:53;;;;;;;;;;;;;;;17.89;88.43;101014.09;4955608;29;1013;-86
2022/08/30 11:14:19;;;;;;;;;;;;;;;17.89;87.96;101004.97;4971768;28;1716;-88
2022/08/30 11:16:45;;;;;;;;;;;;;;;17.94;88.31;101002.91;4980589;28;1192;-87
2022/08/30 11:19:16;;;;;;;;;;;;;;;17.96;89.28;101008.91;4973322;28;1462;-88
2022/08/30 11:21:42;;;;;;;;;;;;;;;17.97;88.66;101009.72;4974319;28;1627;-87
2022/08/30 11:24:15;;;;;;;;;;;;;;;17.95;89.40;101010.03;4974206;28;1428;-84
2022/08/30 11:26:49;;;;;;;;;;;;;;;17.97;90.05;101005.00;4974675;28;1051;-87
2022/08/30 11:29:28;;;;;;;;;;;;;;;17.97;88.01;101010.53;4955193;28;1890;-87
2022/08/30 11:31:54;;;;;;;;;;;;;;;18.00;87.78;101001.63;4977135;28;1423;-87
2022/08/30 11:34:38;;;;;;;;;;;;;;;18.04;87.97;101010.09;4975683;28;1366;-87
2022/08/30 11:37:04;;;;;;;;;;;;;;;18.04;86.74;100999.81;4977558;28;1787;-87
2022/08/30 11:39:48;;;;;;;;;;;;;;;18.09;88.63;100991.41;4973952;28;1500;-85
2022/08/30 11:42:31;;;;;;;;;;;;;;;18.24;86.86;101000.41;4970506;28;1351;-86
2022/08/30 11:45:15;;;;;;;;;;;;;;;18.32;85.96;101000.44;4972845;28;1217;-86
2022/08/30 11:48:08;;;;;;;;;;;;;;;18.33;86.03;100988.22;4980313;28;1906;-86
2022/08/30 11:50:33;;;;;;;;;;;;;;;18.46;86.33;100990.06;4980858;28;1393;-85
2022/08/30 11:53:06;;;;;;;;;;;;;;;18.48;86.24;100981.41;4982366;28;1946;-85
2022/08/30 11:55:50;;;;;;;;;;;;;;;18.44;84.79;100984.03;4970526;28;1441;-85
2022/08/30 11:58:24;;;;;;;;;;;;;;;18.51;85.79;100986.34;4976002;28;1368;-85
2022/08/30 12:01:09;;;;;;;;;;;;;;;18.57;85.94;100993.38;4977999;28;1327;-85
2022/08/30 12:03:34;;;;;;;;;;;;;;;18.64;84.05;100990.94;4983837;28;1656;-86
2022/08/30 12:06:01;;;;;;;;;;;;;;;18.68;85.09;100983.63;4983514;28;1393;-86
2022/08/30 12:08:32;;;;;;;;;;;;;;;18.74;83.19;100987.06;4979867;28;1953;-85
2022/08/30 12:10:59;;;;;;;;;;;;;;;18.77;83.97;100978.09;4974188;28;1687;-85
2022/08/30 12:13:33;;;;;;;;;;;;;;;18.85;84.42;100980.91;4971178;28;1395;-86
2022/08/30 12:16:13;;;;;;;;;;;;;;;18.90;83.01;100988.22;4984604;28;1449;-86
2022/08/30 12:18:45;;;;;;;;;;;;;;;18.92;82.90;100976.81;4989655;28;1444;-86
2022/08/30 12:21:14;;;;;;;;;;;;;;;18.92;83.65;100982.34;4981166;28;1531;-85
2022/08/30 12:23:58;;;;;;;;;;;;;;;18.96;83.77;100986.94;4974109;28;1658;-85
2022/08/30 12:26:23;;;;;;;;;;;;;;;19.00;83.29;100981.56;4976143;28;1220;-85
2022/08/30 12:28:50;;;;;;;;;;;;;;;19.03;82.91;100975.38;4979410;28;1957;-85
2022/08/30 12:31:18;;;;;;;;;;;;;;;19.10;83.30;100982.06;4973951;28;1603;-85
2022/08/30 12:33:45;;;;;;;;;;;;;;;19.19;81.32;100973.72;4979179;28;1377;-87
2022/08/30 12:36:30;;;;;;;;;;;;;;;19.30;81.27;100974.22;4975623;28;1493;-88
2022/08/30 12:39:10;;;;;;;;;;;;;;;19.32;81.44;100969.13;4987564;28;1538;-87
2022/08/30 12:41:35;;;;;;;;;;;;;;;19.35;80.91;100971.28;4977929;28;1063;-86
2022/08/30 12:44:01;;;;;;;;;;;;;;;19.41;81.85;100959.66;4977664;28;1320;-85
2022/08/30 12:46:27;;;;;;;;;;;;;;;19.44;81.39;100972.91;4979669;28;1423;-84
2022/08/30 12:48:52;;;;;;;;;;;;;;;19.49;79.82;100958.88;4967584;28;1898;-84
2022/08/30 12:51:29;;;;;;;;;;;;;;;19.53;80.83;100956.25;4972792;28;1478;-85
2022/08/30 12:54:01;;;;;;;;;;;;;;;19.68;79.48;100952.94;4984992;28;1443;-84